createdAt,value
2023-09-10T00:02:00.293Z,17.78
2023-09-10T00:05:03.488Z,17.81
2023-09-10T00:08:06.600Z,17.72
2023-09-10T00:11:09.468Z,17.64
2023-09-10T00:14:12.397Z,17.54
2023-09-10T00:17:15.191Z,17.48
2023-09-10T00:20:18.002Z,17.44
2023-09-10T00:23:21.759Z,17.46
2023-09-10T00:26:26.297Z,17.47
2023-09-10T00:29:29.393Z,17.47
2023-09-10T00:32:32.306Z,17.45
2023-09-10T00:35:35.180Z,17.48
2023-09-10T00:38:39.030Z,17.46
2023-09-10T00:41:42.072Z,17.41
2023-09-10T00:44:44.919Z,17.38
2023-09-10T00:47:48.450Z,17.41
2023-09-10T00:50:52.102Z,17.45
2023-09-10T00:53:55.791Z,17.54
2023-09-10T00:56:59.181Z,17.60
2023-09-10T01:00:02.237Z,17.65
2023-09-10T01:03:07.660Z,17.57
2023-09-10T01:06:10.901Z,17.59
2023-09-10T01:09:13.950Z,17.53
2023-09-10T01:12:26.492Z,17.44
2023-09-10T01:15:36.356Z,17.36
2023-09-10T01:18:51.226Z,17.30
2023-09-10T01:22:01.708Z,17.26
2023-09-10T01:25:05.337Z,17.32
2023-09-10T01:28:08.173Z,17.24
2023-09-10T01:31:11.184Z,17.13
2023-09-10T01:34:17.228Z,17.01
2023-09-10T01:37:46.590Z,16.90
2023-09-10T01:41:18.099Z,16.95
2023-09-10T01:44:24.362Z,16.99
2023-09-10T01:47:27.569Z,17.02
2023-09-10T01:50:31.255Z,17.04
2023-09-10T01:53:34.564Z,17.06
2023-09-10T01:56:37.311Z,17.05
2023-09-10T01:59:40.019Z,16.92
2023-09-10T02:02:42.864Z,16.93
2023-09-10T02:05:45.784Z,16.87
2023-09-10T02:08:48.476Z,16.84
2023-09-10T02:11:51.254Z,16.79
2023-09-10T02:14:54.007Z,16.77
2023-09-10T02:17:58.072Z,16.72
2023-09-10T02:21:00.854Z,16.78
2023-09-10T02:24:03.930Z,16.80
2023-09-10T02:27:06.692Z,16.73
2023-09-10T02:30:09.849Z,16.70
2023-09-10T02:33:12.698Z,16.69
2023-09-10T02:36:15.484Z,16.62
2023-09-10T02:39:18.189Z,16.62
2023-09-10T02:42:21.186Z,16.52
2023-09-10T02:45:23.959Z,16.49
2023-09-10T02:48:27.000Z,16.48
2023-09-10T02:51:30.365Z,16.47
2023-09-10T02:54:35.816Z,16.38
2023-09-10T02:57:39.068Z,16.34
2023-09-10T03:00:41.759Z,16.36
2023-09-10T03:03:44.575Z,16.18
2023-09-10T03:06:49.274Z,16.15
2023-09-10T03:09:52.187Z,16.12
2023-09-10T03:12:55.005Z,16.15
2023-09-10T03:15:57.794Z,16.18
2023-09-10T03:19:01.025Z,16.13
2023-09-10T03:22:04.110Z,16.14
2023-09-10T03:25:07.637Z,16.13
2023-09-10T03:28:10.768Z,16.13
2023-09-10T03:31:14.007Z,16.18
2023-09-10T03:34:17.040Z,16.24
2023-09-10T03:37:19.897Z,16.25
2023-09-10T03:40:22.757Z,16.24
2023-09-10T03:43:25.555Z,16.20
2023-09-10T03:46:29.938Z,16.18
2023-09-10T03:49:32.866Z,16.16
2023-09-10T03:52:35.644Z,16.12
2023-09-10T03:55:38.431Z,16.00
2023-09-10T03:58:41.604Z,15.85
2023-09-10T04:01:44.755Z,15.58
2023-09-10T04:04:48.460Z,15.36
2023-09-10T04:07:51.244Z,15.43
2023-09-10T04:10:53.973Z,15.46
2023-09-10T04:13:56.672Z,15.55
2023-09-10T04:16:59.434Z,15.61
2023-09-10T04:20:02.210Z,15.60
2023-09-10T04:23:05.146Z,15.63
2023-09-10T04:26:08.214Z,15.65
2023-09-10T04:29:11.171Z,15.70
2023-09-10T04:32:14.184Z,15.69
2023-09-10T04:35:17.630Z,15.71
2023-09-10T04:38:21.227Z,15.71
2023-09-10T04:41:24.081Z,15.71
2023-09-10T04:44:27.102Z,15.65
2023-09-10T04:47:30.231Z,15.49
2023-09-10T04:50:33.119Z,15.53
2023-09-10T04:53:37.142Z,15.56
2023-09-10T04:56:39.957Z,15.67
2023-09-10T04:59:43.877Z,15.73
2023-09-10T05:02:48.520Z,15.79
2023-09-10T05:06:01.352Z,15.82
2023-09-10T05:09:04.730Z,15.95
2023-09-10T05:12:07.667Z,15.99
2023-09-10T05:15:12.227Z,16.12
2023-09-10T05:18:16.134Z,16.25
2023-09-10T05:21:18.987Z,16.33
2023-09-10T05:24:21.782Z,16.47
2023-09-10T05:27:24.751Z,16.56
2023-09-10T05:30:27.580Z,16.69
2023-09-10T05:33:30.439Z,16.84
2023-09-10T05:36:34.160Z,16.96
2023-09-10T05:39:36.951Z,17.09
2023-09-10T05:42:39.945Z,17.22
2023-09-10T05:45:43.098Z,17.35
2023-09-10T05:48:46.479Z,17.44
2023-09-10T05:51:49.315Z,17.56
2023-09-10T05:54:52.236Z,17.69
2023-09-10T05:57:55.016Z,17.82
2023-09-10T06:00:58.467Z,17.98
2023-09-10T06:04:01.507Z,18.09
2023-09-10T06:07:05.197Z,18.20
2023-09-10T06:10:10.640Z,18.33
2023-09-10T06:13:14.607Z,18.44
2023-09-10T06:16:18.175Z,18.55
2023-09-10T06:19:21.089Z,18.65
2023-09-10T06:22:23.850Z,18.82
2023-09-10T06:25:27.197Z,18.96
2023-09-10T06:28:30.230Z,19.10
2023-09-10T06:31:33.954Z,19.32
2023-09-10T06:34:36.905Z,19.54
2023-09-10T06:37:40.926Z,19.64
2023-09-10T06:40:43.833Z,19.83
2023-09-10T06:43:46.902Z,20.02
2023-09-10T06:46:53.049Z,20.19
2023-09-10T06:49:55.804Z,20.34
2023-09-10T06:52:58.590Z,20.51
2023-09-10T06:56:01.370Z,20.63
2023-09-10T06:59:04.160Z,20.75
2023-09-10T07:02:07.637Z,20.91
2023-09-10T07:05:11.328Z,21.05
2023-09-10T07:08:14.240Z,21.13
2023-09-10T07:11:17.045Z,21.32
2023-09-10T07:14:21.231Z,21.49
2023-09-10T07:17:24.102Z,21.64
2023-09-10T07:20:27.078Z,21.84
2023-09-10T07:23:30.329Z,21.90
2023-09-10T07:26:33.439Z,22.09
2023-09-10T07:29:36.177Z,22.24
2023-09-10T07:32:39.723Z,22.35
2023-09-10T07:35:42.483Z,22.47
2023-09-10T07:38:45.434Z,22.76
2023-09-10T07:41:48.184Z,22.96
2023-09-10T07:44:50.906Z,23.12
2023-09-10T07:47:53.745Z,23.24
2023-09-10T07:50:57.754Z,23.39
2023-09-10T07:54:00.583Z,23.40
2023-09-10T07:57:04.778Z,23.54
2023-09-10T08:00:09.797Z,23.61
2023-09-10T08:03:19.225Z,23.76
2023-09-10T08:06:22.665Z,23.95
2023-09-10T08:09:25.643Z,24.13
2023-09-10T08:12:28.540Z,24.20
2023-09-10T08:15:32.697Z,24.37
2023-09-10T08:18:35.516Z,24.48
2023-09-10T08:21:38.314Z,24.63
2023-09-10T08:24:41.102Z,24.85
2023-09-10T08:27:43.877Z,24.80
2023-09-10T08:30:47.100Z,24.96
2023-09-10T08:33:50.008Z,25.09
2023-09-10T08:36:52.729Z,25.24
2023-09-10T08:39:55.531Z,25.26
2023-09-10T08:43:19.521Z,25.49
2023-09-10T08:46:24.177Z,25.60
2023-09-10T08:49:28.864Z,25.82
2023-09-10T08:52:33.043Z,25.87
2023-09-10T08:55:36.856Z,25.97
2023-09-10T08:58:41.710Z,26.04
2023-09-10T09:01:45.945Z,26.09
2023-09-10T09:04:48.893Z,26.23
2023-09-10T09:07:58.796Z,26.41
2023-09-10T09:11:06.802Z,26.49
2023-09-10T09:14:10.817Z,26.53
2023-09-10T09:17:15.411Z,26.77
2023-09-10T09:20:20.647Z,26.82
2023-09-10T09:23:32.838Z,26.82
2023-09-10T09:26:37.648Z,26.94
2023-09-10T09:29:40.701Z,27.17
2023-09-10T09:32:46.419Z,27.32
2023-09-10T09:35:49.212Z,27.33
2023-09-10T09:38:52.087Z,27.30
2023-09-10T09:41:55.708Z,27.42
2023-09-10T09:45:01.666Z,27.65
2023-09-10T09:48:05.389Z,27.66
2023-09-10T09:51:08.321Z,27.70
2023-09-10T09:54:12.450Z,27.75
2023-09-10T09:57:18.352Z,27.87
2023-09-10T10:00:23.383Z,28.09
2023-09-10T10:03:26.529Z,28.06
2023-09-10T10:06:31.196Z,28.14
2023-09-10T10:09:37.018Z,28.15
2023-09-10T10:12:41.730Z,28.31
2023-09-10T10:15:49.472Z,28.40
2023-09-10T10:18:54.570Z,28.49
2023-09-10T10:21:57.826Z,28.63
2023-09-10T10:25:02.042Z,28.61
2023-09-10T10:28:09.289Z,28.53
2023-09-10T10:31:12.056Z,28.72
2023-09-10T10:34:27.763Z,28.80
2023-09-10T10:38:03.104Z,28.76
2023-09-10T10:41:15.350Z,28.77
2023-09-10T10:44:18.053Z,28.78
2023-09-10T10:47:24.263Z,28.79
2023-09-10T10:50:32.375Z,28.92
2023-09-10T10:53:37.118Z,29.11
2023-09-10T10:56:40.146Z,29.26
2023-09-10T10:59:43.062Z,29.36
2023-09-10T11:02:49.298Z,29.31
2023-09-10T11:05:55.080Z,29.40
2023-09-10T11:08:57.887Z,29.38
2023-09-10T11:12:07.640Z,29.36
2023-09-10T11:15:12.000Z,29.43
2023-09-10T11:18:36.444Z,29.53
2023-09-10T11:21:57.495Z,29.57
2023-09-10T11:25:07.303Z,29.60
2023-09-10T11:28:43.898Z,29.48
2023-09-10T11:31:53.644Z,29.65
2023-09-10T11:35:18.127Z,29.81
2023-09-10T11:38:22.266Z,29.56
2023-09-10T11:41:25.075Z,29.63
2023-09-10T11:44:27.953Z,29.86
2023-09-10T11:47:31.067Z,29.89
2023-09-10T11:50:34.636Z,29.64
2023-09-10T11:53:37.619Z,29.67
2023-09-10T11:56:42.039Z,29.71
2023-09-10T11:59:51.468Z,29.76
2023-09-10T12:02:57.166Z,29.36
2023-09-10T12:06:00.905Z,29.60
2023-09-10T12:09:03.740Z,29.86
2023-09-10T12:12:14.076Z,29.83
2023-09-10T12:15:17.142Z,29.83
2023-09-10T12:18:22.388Z,29.84
2023-09-10T12:21:25.717Z,29.82
2023-09-10T12:24:28.501Z,29.82
2023-09-10T12:27:31.225Z,29.68
2023-09-10T12:30:35.153Z,29.61
2023-09-10T12:33:38.306Z,29.68
2023-09-10T12:36:42.780Z,29.63
2023-09-10T12:39:46.471Z,29.52
2023-09-10T12:42:52.589Z,29.51
2023-09-10T12:45:56.409Z,29.72
2023-09-10T12:48:59.228Z,29.71
2023-09-10T12:52:02.082Z,29.50
2023-09-10T12:55:05.485Z,29.48
2023-09-10T12:58:18.450Z,29.70
2023-09-10T13:01:26.642Z,29.79
2023-09-10T13:04:29.383Z,29.80
2023-09-10T13:07:32.246Z,29.66
2023-09-10T13:10:35.017Z,29.62
2023-09-10T13:13:38.069Z,29.68
2023-09-10T13:16:41.062Z,29.54
2023-09-10T13:19:43.926Z,29.61
2023-09-10T13:22:46.808Z,29.64
2023-09-10T13:25:49.737Z,29.59
2023-09-10T13:28:52.464Z,29.50
2023-09-10T13:31:55.268Z,29.58
2023-09-10T13:34:58.045Z,29.49
2023-09-10T13:38:00.846Z,29.74
2023-09-10T13:41:03.684Z,29.94
2023-09-10T13:44:06.622Z,30.03
2023-09-10T13:47:09.507Z,29.85
2023-09-10T13:50:15.175Z,29.94
2023-09-10T13:53:18.041Z,30.22
2023-09-10T13:56:20.822Z,30.64
2023-09-10T13:59:23.712Z,30.83
2023-09-10T14:02:26.602Z,30.65
2023-09-10T14:05:31.902Z,30.87
2023-09-10T14:08:35.520Z,31.01
2023-09-10T14:11:38.338Z,31.04
2023-09-10T14:14:41.149Z,31.35
2023-09-10T14:17:43.947Z,30.84
2023-09-10T14:20:46.743Z,30.66
2023-09-10T14:23:49.643Z,30.76
2023-09-10T14:26:53.463Z,30.86
2023-09-10T14:29:56.277Z,31.17
2023-09-10T14:32:59.186Z,30.92
2023-09-10T14:36:02.053Z,30.97
2023-09-10T14:39:04.980Z,31.01
2023-09-10T14:42:07.774Z,31.05
2023-09-10T14:45:10.931Z,30.87
2023-09-10T14:48:14.113Z,30.86
2023-09-10T14:51:16.999Z,30.83
2023-09-10T14:54:19.851Z,30.73
2023-09-10T14:57:22.597Z,30.35
2023-09-10T15:00:25.437Z,30.07
2023-09-10T15:03:28.233Z,30.15
2023-09-10T15:06:31.261Z,29.96
2023-09-10T15:09:34.065Z,29.81
2023-09-10T15:12:36.841Z,29.72
2023-09-10T15:15:39.561Z,29.58
2023-09-10T15:18:42.294Z,29.41
2023-09-10T15:21:45.047Z,29.15
2023-09-10T15:24:47.744Z,29.06
2023-09-10T15:27:50.769Z,28.94
2023-09-10T15:30:53.571Z,28.94
2023-09-10T15:33:56.251Z,28.81
2023-09-10T15:36:59.050Z,28.77
2023-09-10T15:40:01.771Z,28.70
2023-09-10T15:43:04.843Z,28.60
2023-09-10T15:46:07.635Z,28.51
2023-09-10T15:49:10.770Z,28.38
2023-09-10T15:52:14.401Z,28.18
2023-09-10T15:55:17.199Z,28.08
2023-09-10T15:58:20.032Z,28.10
2023-09-10T16:01:22.923Z,28.08
2023-09-10T16:04:25.694Z,28.11
2023-09-10T16:07:28.453Z,28.11
2023-09-10T16:10:31.197Z,27.96
2023-09-10T16:13:34.278Z,27.87
2023-09-10T16:16:37.378Z,27.82
2023-09-10T16:19:40.714Z,27.73
2023-09-10T16:22:43.669Z,27.73
2023-09-10T16:25:46.399Z,27.58
2023-09-10T16:28:49.233Z,27.56
2023-09-10T16:31:51.992Z,27.38
2023-09-10T16:34:54.728Z,27.19
2023-09-10T16:37:57.467Z,27.07
2023-09-10T16:41:00.279Z,26.94
2023-09-10T16:44:03.133Z,26.75
2023-09-10T16:47:05.987Z,26.63
2023-09-10T16:50:11.653Z,26.41
2023-09-10T16:53:14.558Z,26.21
2023-09-10T16:56:17.302Z,26.01
2023-09-10T16:59:20.144Z,25.82
2023-09-10T17:02:23.010Z,25.61
2023-09-10T17:05:29.130Z,25.45
2023-09-10T17:08:31.942Z,25.28
2023-09-10T17:11:34.788Z,25.12
2023-09-10T17:14:37.644Z,25.02
2023-09-10T17:17:40.659Z,24.92
2023-09-10T17:20:43.903Z,24.82
2023-09-10T17:23:49.911Z,24.75
2023-09-10T17:26:53.089Z,24.64
2023-09-10T17:29:56.070Z,24.52
2023-09-10T17:32:58.889Z,24.41
2023-09-10T17:36:01.700Z,24.30
2023-09-10T17:39:04.755Z,24.18
2023-09-10T17:42:07.571Z,24.09
2023-09-10T17:45:10.412Z,23.94
2023-09-10T17:48:13.277Z,23.82
2023-09-10T17:51:20.775Z,23.68
2023-09-10T17:54:23.809Z,23.59
2023-09-10T17:57:26.568Z,23.50
2023-09-10T18:00:29.399Z,23.39
2023-09-10T18:03:32.444Z,23.30
2023-09-10T18:06:35.340Z,23.21
2023-09-10T18:09:38.267Z,23.13
2023-09-10T18:12:41.164Z,23.03
2023-09-10T18:15:43.937Z,22.94
2023-09-10T18:18:47.029Z,22.84
2023-09-10T18:21:52.396Z,22.77
2023-09-10T18:24:55.342Z,22.63
2023-09-10T18:27:58.107Z,22.54
2023-09-10T18:31:03.336Z,22.39
2023-09-10T18:34:06.130Z,22.37
2023-09-10T18:37:08.892Z,22.34
2023-09-10T18:40:12.004Z,22.23
2023-09-10T18:43:15.080Z,22.14
2023-09-10T18:46:18.256Z,22.16
2023-09-10T18:49:22.013Z,22.03
2023-09-10T18:52:26.159Z,21.98
2023-09-10T18:55:29.223Z,21.91
2023-09-10T18:58:32.257Z,21.88
2023-09-10T19:01:35.146Z,21.77
2023-09-10T19:04:38.670Z,21.65
2023-09-10T19:07:41.414Z,21.62
2023-09-10T19:10:44.457Z,21.55
2023-09-10T19:13:47.179Z,21.46
2023-09-10T19:16:50.369Z,21.50
2023-09-10T19:19:53.467Z,21.36
2023-09-10T19:22:56.203Z,21.31
2023-09-10T19:25:59.143Z,21.27
2023-09-10T19:29:02.202Z,21.12
2023-09-10T19:32:05.213Z,21.00
2023-09-10T19:35:08.630Z,20.90
2023-09-10T19:38:11.460Z,20.86
2023-09-10T19:41:14.337Z,20.89
2023-09-10T19:44:17.251Z,20.85
2023-09-10T19:47:20.052Z,20.84
2023-09-10T19:50:23.078Z,20.83
2023-09-10T19:53:25.903Z,20.79
2023-09-10T19:56:28.829Z,20.60
2023-09-10T19:59:32.912Z,20.61
2023-09-10T20:02:36.114Z,20.56
2023-09-10T20:05:40.686Z,20.57
2023-09-10T20:08:43.546Z,20.58
2023-09-10T20:11:46.671Z,20.51
2023-09-10T20:14:49.438Z,20.44
2023-09-10T20:17:52.804Z,20.40
2023-09-10T20:20:56.282Z,20.25
2023-09-10T20:23:59.083Z,20.27
2023-09-10T20:27:01.931Z,20.26
2023-09-10T20:30:05.321Z,20.13
2023-09-10T20:33:08.189Z,20.11
2023-09-10T20:36:11.032Z,20.16
2023-09-10T20:39:13.957Z,20.07
2023-09-10T20:42:16.754Z,19.93
2023-09-10T20:45:19.688Z,19.88
2023-09-10T20:48:23.721Z,19.81
2023-09-10T20:51:32.957Z,19.74
2023-09-10T20:54:35.765Z,19.76
2023-09-10T20:57:38.497Z,19.68
2023-09-10T21:00:41.798Z,19.77
2023-09-10T21:03:44.731Z,19.73
2023-09-10T21:06:47.964Z,19.73
2023-09-10T21:09:52.826Z,19.73
2023-09-10T21:13:06.448Z,19.72
2023-09-10T21:16:15.110Z,19.62
2023-09-10T21:19:17.859Z,19.63
2023-09-10T21:22:21.147Z,19.65
2023-09-10T21:25:23.965Z,19.67
2023-09-10T21:28:26.824Z,19.62
2023-09-10T21:31:29.567Z,19.55
2023-09-10T21:34:32.387Z,19.40
2023-09-10T21:37:35.164Z,19.33
2023-09-10T21:40:37.934Z,19.34
2023-09-10T21:43:40.659Z,19.31
2023-09-10T21:46:43.359Z,19.23
2023-09-10T21:49:46.096Z,19.17
2023-09-10T21:52:48.831Z,19.16
2023-09-10T21:55:51.568Z,19.11
2023-09-10T21:58:54.242Z,19.04
2023-09-10T22:01:57.039Z,18.99
2023-09-10T22:05:00.309Z,18.92
2023-09-10T22:08:03.218Z,18.80
2023-09-10T22:11:06.805Z,18.82
2023-09-10T22:14:09.685Z,18.79
2023-09-10T22:17:12.414Z,18.78
2023-09-10T22:20:15.214Z,18.77
2023-09-10T22:23:18.266Z,18.71
2023-09-10T22:26:21.029Z,18.68
2023-09-10T22:29:23.778Z,18.66
2023-09-10T22:32:26.589Z,18.65
2023-09-10T22:35:29.747Z,18.68
2023-09-10T22:38:32.564Z,18.65
2023-09-10T22:41:35.516Z,18.59
2023-09-10T22:44:38.364Z,18.64
2023-09-10T22:47:43.203Z,18.61
2023-09-10T22:50:46.251Z,18.51
2023-09-10T22:53:52.393Z,18.48
2023-09-10T22:56:55.517Z,18.45
2023-09-10T22:59:58.265Z,18.37
2023-09-10T23:03:01.119Z,18.32
2023-09-10T23:06:05.007Z,18.26
2023-09-10T23:09:07.768Z,18.24
2023-09-10T23:12:10.641Z,18.19
2023-09-10T23:15:13.367Z,18.12
2023-09-10T23:18:16.194Z,18.15
2023-09-10T23:21:19.009Z,18.16
2023-09-10T23:24:21.778Z,18.09
2023-09-10T23:27:25.019Z,18.04
2023-09-10T23:30:27.897Z,18.01
2023-09-10T23:33:30.626Z,17.95
2023-09-10T23:36:33.455Z,17.88
2023-09-10T23:39:36.158Z,17.93
2023-09-10T23:42:40.353Z,17.91
2023-09-10T23:45:43.186Z,17.78
2023-09-10T23:48:45.897Z,17.78
2023-09-10T23:51:48.934Z,17.76
2023-09-10T23:54:51.655Z,17.67
2023-09-10T23:57:54.354Z,17.77
